Flight Track Log - Related Links

Times and Time Zones

All times are in EDT time to prevent confusion due to time zone crossing. See the UAL3817 flight status page for this flight to view local times or setup timezone preferences in your user account.

Time Position Orientation Groundspeed Altitude Reporting Facility
EDT Latitude Longitude Course Direction KTS MPH feet Rate Location/Type
Sun 03:04:50 PM 43.6833 -79.5333 115° Southeast 170 196 2,200  Level Toronto Center
Sun 03:05:50 PM 43.6833 -79.4667 90° East 220 253 3,600 1,750 Climbing Toronto Center
Sun 03:06:50 PM 43.6500 -79.3833 119° Southeast 210 242 5,700 2,050 Climbing Toronto Center
Sun 03:07:50 PM 43.6167 -79.3167 125° Southeast 220 253 7,700 2,050 Climbing Toronto Center
Sun 03:08:50 PM 43.5833 -79.2500 125° Southeast 240 276 9,800 1,400 Climbing Toronto Center
Sun 03:09:00 PM 43.3865 -78.9333 180° South  Level FlightAware Approximate
Sun 03:09:50 PM 43.5500 -79.1500 115° Southeast 270 311 10,500  Level Toronto Center
Sun 03:10:00 PM 43.5819 -79.5833 115° Southeast  Level Estimated
Sun 03:10:50 PM 43.5000 -79.0667 130° Southeast 320 368 11,000  Level Toronto Center
Sun 03:11:50 PM 43.4333 -78.9500 128° Southeast 360 414 11,900 831 Climbing Toronto Center
Sun 03:13:00 PM 43.3728 -78.8183 122° Southeast 371 427 12,800 1,000 Climbing Cleveland Center
Sun 03:14:02 PM 43.3139 -78.6961 123° Southeast 381 438 14,100 1,200 Climbing Cleveland Center
Sun 03:15:05 PM 43.2542 -78.5742 124° Southeast 382 440 15,300 1,152 Climbing Cleveland Center
Sun 03:16:07 PM 43.1950 -78.4544 124° Southeast 382 440 16,500 968 Climbing Cleveland Center
Sun 03:17:09 PM 43.1358 -78.3350 124° Southeast 382 440 17,300 726 Climbing Cleveland Center
Sun 03:18:11 PM 43.0753 -78.2108 124° Southeast 386 444 18,000 774 Climbing Cleveland Center
Sun 03:19:13 PM 42.9936 -78.0692 128° Southeast 402 463 18,900 774 Climbing Cleveland Center
Sun 03:20:15 PM 42.8847 -78.0372 168° South 410 472 19,600 677 Climbing Cleveland Center
Sun 03:21:17 PM 42.7703 -78.0453 183° South 415 478 20,300 768 Climbing Cleveland Center
Sun 03:22:20 PM 42.6561 -78.0517 182° South 415 478 21,200 912 Climbing Cleveland Center
Sun 03:23:22 PM 42.5172 -78.0614 183° South 418 481 22,200 871 Climbing Cleveland Center
Sun 03:24:24 PM 42.4008 -78.0692 183° South 419 482 23,000 726 Climbing Cleveland Center
Sun 03:25:26 PM 42.2844 -78.0753 182° South 420 483 23,700 677 Climbing Cleveland Center
Sun 03:26:28 PM 42.1658 -78.0839 183° South 425 489 24,400 629 Climbing Cleveland Center
Sun 03:27:30 PM 42.0461 -78.0911 183° South 429 494 25,000 672 Climbing Cleveland Center
Sun 03:28:33 PM 41.9011 -78.1003 183° South 431 496 25,800 624 Climbing Cleveland Center
Sun 03:29:35 PM 41.7911 -78.1067 182° South 438 504 26,300 581 Climbing Cleveland Center
Sun 03:30:37 PM 41.6703 -78.1142 183° South 438 504 27,000 339 Climbing Cleveland Center
Sun 03:31:39 PM 41.5217 -78.1236 183° South 441 507 27,000 -484 Level Cleveland Center
Sun 03:32:41 PM 41.3931 -78.1311 183° South 457 526 26,000 -960 Descending Cleveland Center
Sun 03:33:44 PM 41.2608 -78.1403 183° South 469 540 25,000 -480 Descending Cleveland Center
Sun 03:34:46 PM 41.1361 -78.1039 168° South 463 533 25,000  Level Cleveland Center
Sun 03:35:48 PM 41.0153 -78.0419 159° South 463 533 25,000 -581 Level Cleveland Center
Sun 03:36:50 PM 40.8719 -77.9619 157° South 464 534 23,800 -1,839 Descending Cleveland Center
Sun 03:37:52 PM 40.7589 -77.8897 154° Southeast 459 528 21,200 -2,468 Descending Cleveland Center
Sun 03:38:54 PM 40.6497 -77.8203 154° Southeast 443 510 18,700 -1,536 Descending Cleveland Center
Sun 03:39:57 PM 40.5439 -77.7536 154° Southeast 427 491 18,000 -336 Descending Cleveland Center
Sun 03:40:59 PM 40.4403 -77.6903 155° Southeast 416 479 18,000 -532 Level Cleveland Center
Sun 03:42:01 PM 40.3144 -77.6117 155° Southeast 419 482 16,900 -1,355 Descending Cleveland Center
Sun 03:43:03 PM 40.2256 -77.5553 154° Southeast 408 470 15,200 -1,500 Descending Cleveland Center
Sun 03:44:05 PM 40.1303 -77.4981 155° Southeast 380 437 13,800 -1,065 Descending Cleveland Center
Sun 03:45:07 PM 40.0200 -77.4306 155° Southeast 367 422 13,000 -648 Descending Cleveland Center
Sun 03:47:38 PM 39.7833 -77.2833 154° Southeast 364 419 11,500 -853 Descending Potomac TRACON
Sun 03:48:38 PM 39.7000 -77.2667 171° South 351 404 10,000 -1,041 Descending Potomac TRACON
Sun 03:49:39 PM 39.6167 -77.3000 197° South 284 327 9,400 -1,240 Descending Potomac TRACON
Sun 03:50:39 PM 39.5333 -77.3333 197° South 276 318 7,500 -1,150 Descending Potomac TRACON
Sun 03:51:39 PM 39.4667 -77.3500 191° South 265 305 7,100 -200 Descending Potomac TRACON
Sun 03:52:39 PM 39.4000 -77.3833 201° Southwest 272 313 7,100 -632 Level Potomac TRACON
Sun 03:53:33 PM 39.3333 -77.4167 201° Southwest 240 276 5,900 -1,043 Descending Potomac TRACON
Sun 03:54:34 PM 39.2833 -77.4333 194° South 204 235 5,100 -595 Descending Potomac TRACON
Sun 03:55:34 PM 39.2333 -77.4500 194° South 184 212 4,700 -550 Descending Potomac TRACON
Sun 03:56:34 PM 39.1833 -77.4500 180° South 176 203 4,000 -750 Descending Potomac TRACON
Sun 03:57:34 PM 39.1333 -77.4500 180° South 177 204 3,200 -750 Descending Potomac TRACON
Sun 03:58:34 PM 39.0833 -77.4500 180° South 174 200 2,500 -700 Descending Potomac TRACON
Sun 03:59:34 PM 39.0333 -77.4667 195° South 172 198 1,800 -900 Descending Potomac TRACON
Sun 04:00:34 PM 38.9833 -77.4667 180° South 157 181 700 -1,100 Descending Potomac TRACON

Login

Don't have an account? Register now (free) for customized features, flight alerts, and more!